Carrizal, Mexico

8:20 AM CDT on May 29, 2017 (GMT -0500)
Puerto Escondido | | Change Station

Elev 289 ft 15.87 °N, 97.08 °W | Updated 39 minutes ago

Overcast
Overcast
75 °F
Feels Like 75 °F
N
9
Wind Variable Wind from ENE

Today
High -- | Low -- °F
--% Chance of Precip.
Yesterday
High -- | Low -- °F
Precip. -- in
Pressure 29.97 in
Visibility 5.0 miles
Clouds Scattered Clouds 2500 ft
Overcast 9000 ft
Dew Point 73 °F
Humidity 94%
Rainfall 0.00 in
Snow Depth Not available.
6:56 AM 7:58 PM
Waxing Crescent, 19% visible
METAR MMPS 291241Z 06008KT 5SM DZ SCT025 OVC090 24/23 A2997 RMK 8/760 HZY
Pressure 29.97 in
Visibility 5.0 miles
Clouds Scattered Clouds 2500 ft
Overcast 9000 ft
Dew Point 73 °F
Humidity 94%
Rainfall 0.00 in
Snow Depth Not available.
6:56 AM 7:58 PM
Waxing Crescent, 19% visible
METAR MMPS 291241Z 06008KT 5SM DZ SCT025 OVC090 24/23 A2997 RMK 8/760 HZY

Get Severe Weather Alerts

Thanks for signing up!

Be on the lookout for a verification email in your inbox.

You'll start receiving the daily forecast at 6 AM.

×

10-Day Weather Forecast

No radar image for this location.
×

Almanac

Astronomy

May. 29, 2017 Rise Set
Actual Time
Civil Twilight
Nautical Twilight
Astronomical Twilight
Moon
Length of Visible Light
Length of Day
Tomorrow will be .
, % of the Moon is Illuminated

Today's Extremes

Country Highs Country Lows

Community

WunderPhotos

Category 6

Welcome to Category 6. This is the collective home for Weather Underground's featured writeups by Dr. Jeff Masters (right), Bob Henson (left), Chris Burt, and other regular contributors.

Nearby

Air Quality

  Air Quality AQ Index Pollutant
Not available.

Snow Depth

Station Depth Elevation

Earthquake Activity

City Distance Mag. Time & Date
Minimum magnitude displayed is 2.5.

Coastal Water Temperatures

Place Temperature

Stations

Nearby Weather Stations

Station Location Temp. Windchill Dew Point Humidity Wind Precip. Elev Updated Type